sensor_id;sensor_type;location;lat;lon;timestamp;pressure;altitude;pressure_sealevel;temperature;humidity
76994;BME280;66749;47.406;18.822;2023-06-19T00:00:25;100298.84;;;16.61;74.65
76994;BME280;66749;47.406;18.822;2023-06-19T00:00:58;100306.75;;;16.61;74.55
76994;BME280;66749;47.406;18.822;2023-06-19T00:01:29;100300.78;;;16.59;75.31
76994;BME280;66749;47.406;18.822;2023-06-19T00:02:02;100301.59;;;16.60;74.77
76994;BME280;66749;47.406;18.822;2023-06-19T00:02:34;100306.03;;;16.59;75.30
76994;BME280;66749;47.406;18.822;2023-06-19T00:03:06;100298.28;;;16.58;75.43
76994;BME280;66749;47.406;18.822;2023-06-19T00:03:38;100304.63;;;16.55;75.11
76994;BME280;66749;47.406;18.822;2023-06-19T00:04:10;100297.81;;;16.53;75.38
76994;BME280;66749;47.406;18.822;2023-06-19T00:04:42;100305.56;;;16.54;75.83
76994;BME280;66749;47.406;18.822;2023-06-19T00:05:14;100305.56;;;16.54;75.38
76994;BME280;66749;47.406;18.822;2023-06-19T00:05:46;100301.03;;;16.56;74.98
76994;BME280;66749;47.406;18.822;2023-06-19T00:06:18;100300.06;;;16.57;75.44
76994;BME280;66749;47.406;18.822;2023-06-19T00:06:49;100305.84;;;16.51;75.77
76994;BME280;66749;47.406;18.822;2023-06-19T00:07:21;100298.78;;;16.52;76.04
76994;BME280;66749;47.406;18.822;2023-06-19T00:07:53;100293.75;;;16.49;76.07
76994;BME280;66749;47.406;18.822;2023-06-19T00:08:25;100296.00;;;16.53;75.93
76994;BME280;66749;47.406;18.822;2023-06-19T00:08:57;100296.84;;;16.54;76.17
76994;BME280;66749;47.406;18.822;2023-06-19T00:09:29;100297.81;;;16.53;75.82
76994;BME280;66749;47.406;18.822;2023-06-19T00:10:01;100291.56;;;16.54;75.94
76994;BME280;66749;47.406;18.822;2023-06-19T00:10:33;100302.00;;;16.55;76.13
76994;BME280;66749;47.406;18.822;2023-06-19T00:11:05;100301.03;;;16.56;75.82
76994;BME280;66749;47.406;18.822;2023-06-19T00:11:37;100296.97;;;16.52;76.13
76994;BME280;66749;47.406;18.822;2023-06-19T00:12:08;100288.94;;;16.54;75.59
76994;BME280;66749;47.406;18.822;2023-06-19T00:12:40;100294.19;;;16.54;75.32
76994;BME280;66749;47.406;18.822;2023-06-19T00:13:12;100296.84;;;16.54;75.83
76994;BME280;66749;47.406;18.822;2023-06-19T00:13:44;100292.41;;;16.54;76.29
76994;BME280;66749;47.406;18.822;2023-06-19T00:14:16;100291.47;;;16.55;75.52
76994;BME280;66749;47.406;18.822;2023-06-19T00:14:49;100292.28;;;16.56;75.72
76994;BME280;66749;47.406;18.822;2023-06-19T00:15:20;100293.84;;;16.58;75.48
76994;BME280;66749;47.406;18.822;2023-06-19T00:15:52;100299.09;;;16.58;75.66
76994;BME280;66749;47.406;18.822;2023-06-19T00:16:24;100287.72;;;16.58;76.16
76994;BME280;66749;47.406;18.822;2023-06-19T00:16:59;100290.22;;;16.59;75.78
76994;BME280;66749;47.406;18.822;2023-06-19T00:17:32;100293.69;;;16.60;75.83
76994;BME280;66749;47.406;18.822;2023-06-19T00:18:04;100294.66;;;16.59;76.18
76994;BME280;66749;47.406;18.822;2023-06-19T00:18:38;100294.19;;;16.54;76.21
76994;BME280;66749;47.406;18.822;2023-06-19T00:19:12;100292.41;;;16.54;75.85
76994;BME280;66749;47.406;18.822;2023-06-19T00:19:44;100300.19;;;16.56;75.73
76994;BME280;66749;47.406;18.822;2023-06-19T00:20:16;100301.88;;;16.57;75.71
76994;BME280;66749;47.406;18.822;2023-06-19T00:20:49;100295.16;;;16.53;76.39
76994;BME280;66749;47.406;18.822;2023-06-19T00:21:25;100296.50;;;16.47;76.32
76994;BME280;66749;47.406;18.822;2023-06-19T00:21:57;100304.41;;;16.47;76.21
76994;BME280;66749;47.406;18.822;2023-06-19T00:22:29;100299.72;;;16.51;75.85
76994;BME280;66749;47.406;18.822;2023-06-19T00:23:01;100298.78;;;16.52;75.95
76994;BME280;66749;47.406;18.822;2023-06-19T00:23:33;100303.78;;;16.55;76.07
76994;BME280;66749;47.406;18.822;2023-06-19T00:24:05;100305.00;;;16.51;75.99
76994;BME280;66749;47.406;18.822;2023-06-19T00:24:37;100295.56;;;16.48;76.04
76994;BME280;66749;47.406;18.822;2023-06-19T00:25:09;100295.44;;;16.50;75.58
76994;BME280;66749;47.406;18.822;2023-06-19T00:25:42;100298.78;;;16.52;76.07
76994;BME280;66749;47.406;18.822;2023-06-19T00:26:15;100294.34;;;16.52;76.05
76994;BME280;66749;47.406;18.822;2023-06-19T00:26:46;100295.16;;;16.53;76.15
76994;BME280;66749;47.406;18.822;2023-06-19T00:27:18;100295.03;;;16.54;75.66
76994;BME280;66749;47.406;18.822;2023-06-19T00:27:50;100285.03;;;16.48;76.46
76994;BME280;66749;47.406;18.822;2023-06-19T00:28:22;100293.03;;;16.47;76.31
76994;BME280;66749;47.406;18.822;2023-06-19T00:28:54;100290.28;;;16.48;76.23
76994;BME280;66749;47.406;18.822;2023-06-19T00:29:26;100296.75;;;16.44;76.41
76994;BME280;66749;47.406;18.822;2023-06-19T00:29:59;100286.22;;;16.44;75.96
76994;BME280;66749;47.406;18.822;2023-06-19T00:30:33;100289.81;;;16.43;76.36
76994;BME280;66749;47.406;18.822;2023-06-19T00:31:04;100293.44;;;16.42;76.06
76994;BME280;66749;47.406;18.822;2023-06-19T00:31:38;100290.66;;;16.44;76.37
76994;BME280;66749;47.406;18.822;2023-06-19T00:32:10;100289.81;;;16.43;76.33
76994;BME280;66749;47.406;18.822;2023-06-19T00:32:42;100295.09;;;16.43;76.66
76994;BME280;66749;47.406;18.822;2023-06-19T00:33:18;100287.47;;;16.40;76.14
76994;BME280;66749;47.406;18.822;2023-06-19T00:33:50;100289.00;;;16.43;76.64
76994;BME280;66749;47.406;18.822;2023-06-19T00:34:22;100290.94;;;16.41;76.49
76994;BME280;66749;47.406;18.822;2023-06-19T00:34:55;100291.03;;;16.39;76.42
76994;BME280;66749;47.406;18.822;2023-06-19T00:35:28;100288.16;;;16.42;76.41
76994;BME280;66749;47.406;18.822;2023-06-19T00:35:59;100293.44;;;16.42;76.20
76994;BME280;66749;47.406;18.822;2023-06-19T00:36:32;100288.38;;;16.39;76.32
76994;BME280;66749;47.406;18.822;2023-06-19T00:37:09;100288.28;;;16.41;76.92
76994;BME280;66749;47.406;18.822;2023-06-19T00:37:44;100293.44;;;16.42;77.04
76994;BME280;66749;47.406;18.822;2023-06-19T00:38:16;100284.56;;;16.43;77.08
76994;BME280;66749;47.406;18.822;2023-06-19T00:38:48;100290.53;;;16.45;77.05
76994;BME280;66749;47.406;18.822;2023-06-19T00:39:20;100291.50;;;16.44;77.52
76994;BME280;66749;47.406;18.822;2023-06-19T00:39:52;100289.56;;;16.46;76.95
76994;BME280;66749;47.406;18.822;2023-06-19T00:40:29;100285.97;;;16.47;77.52
76994;BME280;66749;47.406;18.822;2023-06-19T00:41:03;100285.97;;;16.47;77.43
76994;BME280;66749;47.406;18.822;2023-06-19T00:41:35;100287.66;;;16.48;77.41
76994;BME280;66749;47.406;18.822;2023-06-19T00:42:07;100286.69;;;16.49;77.77
76994;BME280;66749;47.406;18.822;2023-06-19T00:42:39;100284.28;;;16.46;77.44
76994;BME280;66749;47.406;18.822;2023-06-19T00:43:11;100288.59;;;16.47;77.84
76994;BME280;66749;47.406;18.822;2023-06-19T00:43:43;100284.19;;;16.48;78.11
76994;BME280;66749;47.406;18.822;2023-06-19T00:44:15;100281.28;;;16.51;77.31
76994;BME280;66749;47.406;18.822;2023-06-19T00:44:47;100281.44;;;16.49;77.87
76994;BME280;66749;47.406;18.822;2023-06-19T00:45:19;100286.44;;;16.52;77.51
76994;BME280;66749;47.406;18.822;2023-06-19T00:45:51;100286.44;;;16.52;77.18
76994;BME280;66749;47.406;18.822;2023-06-19T00:46:22;100282.69;;;16.55;77.50
76994;BME280;66749;47.406;18.822;2023-06-19T00:46:58;100282.69;;;16.55;77.71
76994;BME280;66749;47.406;18.822;2023-06-19T00:47:34;100280.94;;;16.55;77.75
76994;BME280;66749;47.406;18.822;2023-06-19T00:48:06;100287.97;;;16.55;77.30
76994;BME280;66749;47.406;18.822;2023-06-19T00:48:38;100288.69;;;16.57;77.48
76994;BME280;66749;47.406;18.822;2023-06-19T00:49:11;100288.56;;;16.58;77.42
76994;BME280;66749;47.406;18.822;2023-06-19T00:49:43;100284.13;;;16.59;77.24
76994;BME280;66749;47.406;18.822;2023-06-19T00:50:16;100284.97;;;16.59;77.89
76994;BME280;66749;47.406;18.822;2023-06-19T00:50:49;100282.31;;;16.59;77.53
76994;BME280;66749;47.406;18.822;2023-06-19T00:51:21;100285.94;;;16.58;78.09
76994;BME280;66749;47.406;18.822;2023-06-19T00:51:53;100284.97;;;16.59;77.48
76994;BME280;66749;47.406;18.822;2023-06-19T00:52:25;100284.13;;;16.59;77.59
76994;BME280;66749;47.406;18.822;2023-06-19T00:52:59;100279.97;;;16.56;78.09
76994;BME280;66749;47.406;18.822;2023-06-19T00:53:33;100282.00;;;16.53;78.13
76994;BME280;66749;47.406;18.822;2023-06-19T00:54:07;100283.09;;;16.50;78.22
76994;BME280;66749;47.406;18.822;2023-06-19T00:54:39;100281.56;;;16.48;77.74
76994;BME280;66749;47.406;18.822;2023-06-19T00:55:11;100288.50;;;16.49;77.92
76994;BME280;66749;47.406;18.822;2023-06-19T00:55:44;100286.69;;;16.49;77.55
76994;BME280;66749;47.406;18.822;2023-06-19T00:56:16;100284.91;;;16.50;77.80
76994;BME280;66749;47.406;18.822;2023-06-19T00:56:50;100287.53;;;16.50;77.54
76994;BME280;66749;47.406;18.822;2023-06-19T00:57:22;100280.47;;;16.50;77.98
76994;BME280;66749;47.406;18.822;2023-06-19T00:57:55;100290.03;;;16.51;77.37
76994;BME280;66749;47.406;18.822;2023-06-19T00:58:27;100287.53;;;16.50;77.70
76994;BME280;66749;47.406;18.822;2023-06-19T00:58:59;100289.34;;;16.49;77.51
76994;BME280;66749;47.406;18.822;2023-06-19T00:59:31;100285.03;;;16.48;78.13
76994;BME280;66749;47.406;18.822;2023-06-19T01:00:03;100292.09;;;16.48;78.28
76994;BME280;66749;47.406;18.822;2023-06-19T01:00:39;100291.84;;;16.51;77.71
76994;BME280;66749;47.406;18.822;2023-06-19T01:01:11;100287.53;;;16.50;78.03
76994;BME280;66749;47.406;18.822;2023-06-19T01:01:44;100283.22;;;16.49;77.94
76994;BME280;66749;47.406;18.822;2023-06-19T01:02:16;100287.41;;;16.51;78.07
76994;BME280;66749;47.406;18.822;2023-06-19T01:02:49;100285.31;;;16.55;77.67
76994;BME280;66749;47.406;18.822;2023-06-19T01:03:21;100271.59;;;16.51;77.96
76994;BME280;66749;47.406;18.822;2023-06-19T01:03:53;100272.56;;;16.50;78.10
76994;BME280;66749;47.406;18.822;2023-06-19T01:04:25;100279.63;;;16.50;77.96
76994;BME280;66749;47.406;18.822;2023-06-19T01:04:57;100275.44;;;16.47;77.44
76994;BME280;66749;47.406;18.822;2023-06-19T01:05:29;100277.00;;;16.50;77.31
76994;BME280;66749;47.406;18.822;2023-06-19T01:06:02;100272.56;;;16.50;77.29
76994;BME280;66749;47.406;18.822;2023-06-19T01:07:01;100272.91;;;16.46;77.35
76994;BME280;66749;47.406;18.822;2023-06-19T01:07:58;100273.75;;;16.46;77.50
76994;BME280;66749;47.406;18.822;2023-06-19T01:08:41;100270.16;;;16.47;77.33
76994;BME280;66749;47.406;18.822;2023-06-19T01:09:17;100272.91;;;16.46;77.79
76994;BME280;66749;47.406;18.822;2023-06-19T01:09:57;100273.75;;;16.46;77.24
76994;BME280;66749;47.406;18.822;2023-06-19T01:10:40;100274.03;;;16.43;77.33
76994;BME280;66749;47.406;18.822;2023-06-19T01:11:17;100272.09;;;16.45;77.45
76994;BME280;66749;47.406;18.822;2023-06-19T01:12:09;100271.25;;;16.45;77.46
76994;BME280;66749;47.406;18.822;2023-06-19T01:13:01;100275.69;;;16.44;77.76
76994;BME280;66749;47.406;18.822;2023-06-19T01:13:41;100277.63;;;16.42;77.68
76994;BME280;66749;47.406;18.822;2023-06-19T01:14:21;100266.25;;;16.42;77.43
76994;BME280;66749;47.406;18.822;2023-06-19T01:14:57;100273.06;;;16.44;77.23
76994;BME280;66749;47.406;18.822;2023-06-19T01:15:30;100266.38;;;16.40;77.84
76994;BME280;66749;47.406;18.822;2023-06-19T01:16:03;100276.91;;;16.40;77.41
76994;BME280;66749;47.406;18.822;2023-06-19T01:16:36;100272.84;;;16.36;77.46
76994;BME280;66749;47.406;18.822;2023-06-19T01:17:09;100279.78;;;16.37;77.47
76994;BME280;66749;47.406;18.822;2023-06-19T01:17:44;100276.19;;;16.38;77.42
76994;BME280;66749;47.406;18.822;2023-06-19T01:18:17;100281.47;;;16.38;77.70
76994;BME280;66749;47.406;18.822;2023-06-19T01:18:50;100274.38;;;16.38;77.91
76994;BME280;66749;47.406;18.822;2023-06-19T01:19:22;100273.56;;;16.38;77.42
76994;BME280;66749;47.406;18.822;2023-06-19T01:19:58;100282.19;;;16.40;77.54
76994;BME280;66749;47.406;18.822;2023-06-19T01:20:30;100275.50;;;16.36;78.14
76994;BME280;66749;47.406;18.822;2023-06-19T01:21:28;100280.75;;;16.36;78.33
76994;BME280;66749;47.406;18.822;2023-06-19T01:22:02;100275.63;;;16.34;77.92
76994;BME280;66749;47.406;18.822;2023-06-19T01:22:35;100280.88;;;16.34;77.81
76994;BME280;66749;47.406;18.822;2023-06-19T01:23:10;100275.03;;;16.31;78.09
76994;BME280;66749;47.406;18.822;2023-06-19T01:23:43;100278.38;;;16.33;78.16
76994;BME280;66749;47.406;18.822;2023-06-19T01:24:15;100281.72;;;16.35;77.76
76994;BME280;66749;47.406;18.822;2023-06-19T01:24:47;100276.44;;;16.35;78.38
76994;BME280;66749;47.406;18.822;2023-06-19T01:25:19;100281.59;;;16.36;78.30
76994;BME280;66749;47.406;18.822;2023-06-19T01:25:51;100273.81;;;16.35;78.03
76994;BME280;66749;47.406;18.822;2023-06-19T01:26:23;100280.63;;;16.37;77.58
76994;BME280;66749;47.406;18.822;2023-06-19T01:26:59;100276.19;;;16.38;78.01
76994;BME280;66749;47.406;18.822;2023-06-19T01:27:32;100276.44;;;16.35;78.05
76994;BME280;66749;47.406;18.822;2023-06-19T01:28:07;100274.06;;;16.32;77.93
76994;BME280;66749;47.406;18.822;2023-06-19T01:28:44;100271.31;;;16.33;77.81
76994;BME280;66749;47.406;18.822;2023-06-19T01:29:17;100270.72;;;16.30;78.38
76994;BME280;66749;47.406;18.822;2023-06-19T01:29:50;100269.88;;;16.29;77.91
76994;BME280;66749;47.406;18.822;2023-06-19T01:30:22;100273.34;;;16.30;77.73
76994;BME280;66749;47.406;18.822;2023-06-19T01:30:57;100270.72;;;16.30;77.66
76994;BME280;66749;47.406;18.822;2023-06-19T01:31:34;100278.38;;;16.33;78.06
76994;BME280;66749;47.406;18.822;2023-06-19T01:32:22;100270.47;;;16.33;77.81
76994;BME280;66749;47.406;18.822;2023-06-19T01:33:02;100269.66;;;16.32;77.90
76994;BME280;66749;47.406;18.822;2023-06-19T01:33:37;100265.44;;;16.30;77.75
76994;BME280;66749;47.406;18.822;2023-06-19T01:34:10;100264.88;;;16.26;78.30
76994;BME280;66749;47.406;18.822;2023-06-19T01:34:43;100270.28;;;16.25;77.85
76994;BME280;66749;47.406;18.822;2023-06-19T01:35:19;100265.00;;;16.25;78.22
76994;BME280;66749;47.406;18.822;2023-06-19T01:35:55;100269.41;;;16.24;77.82
76994;BME280;66749;47.406;18.822;2023-06-19T01:36:28;100269.31;;;16.26;78.11
76994;BME280;66749;47.406;18.822;2023-06-19T01:37:01;100271.13;;;16.25;78.19
76994;BME280;66749;47.406;18.822;2023-06-19T01:37:36;100262.13;;;16.28;77.65
76994;BME280;66749;47.406;18.822;2023-06-19T01:38:08;100263.22;;;16.25;78.07
76994;BME280;66749;47.406;18.822;2023-06-19T01:38:44;100265.72;;;16.27;77.51
76994;BME280;66749;47.406;18.822;2023-06-19T01:39:18;100260.44;;;16.27;77.61
76994;BME280;66749;47.406;18.822;2023-06-19T01:39:52;100263.91;;;16.27;78.16
76994;BME280;66749;47.406;18.822;2023-06-19T01:40:25;100260.69;;;16.24;77.69
76994;BME280;66749;47.406;18.822;2023-06-19T01:40:58;100263.22;;;16.25;77.90
76994;BME280;66749;47.406;18.822;2023-06-19T01:41:32;100265.84;;;16.25;77.71
76994;BME280;66749;47.406;18.822;2023-06-19T01:42:04;100255.19;;;16.27;77.32
76994;BME280;66749;47.406;18.822;2023-06-19T01:42:39;100261.41;;;16.26;77.53
76994;BME280;66749;47.406;18.822;2023-06-19T01:43:12;100258.78;;;16.26;78.13
76994;BME280;66749;47.406;18.822;2023-06-19T01:43:45;100263.31;;;16.24;78.47
76994;BME280;66749;47.406;18.822;2023-06-19T01:44:18;100250.66;;;16.18;78.21
76994;BME280;66749;47.406;18.822;2023-06-19T01:44:50;100257.47;;;16.20;79.07
76994;BME280;66749;47.406;18.822;2023-06-19T01:45:22;100252.22;;;16.20;78.87
76994;BME280;66749;47.406;18.822;2023-06-19T01:45:55;100256.78;;;16.18;78.98
76994;BME280;66749;47.406;18.822;2023-06-19T01:46:27;100253.31;;;16.18;78.62
76994;BME280;66749;47.406;18.822;2023-06-19T01:46:58;100248.13;;;16.16;78.79
76994;BME280;66749;47.406;18.822;2023-06-19T01:47:30;100251.38;;;16.20;78.58
76994;BME280;66749;47.406;18.822;2023-06-19T01:48:02;100253.41;;;16.16;78.78
76994;BME280;66749;47.406;18.822;2023-06-19T01:48:35;100248.28;;;16.15;78.31
76994;BME280;66749;47.406;18.822;2023-06-19T01:49:08;100248.13;;;16.16;78.00
76994;BME280;66749;47.406;18.822;2023-06-19T01:49:41;100251.88;;;16.14;77.67
76994;BME280;66749;47.406;18.822;2023-06-19T01:50:14;100255.47;;;16.13;78.10
76994;BME280;66749;47.406;18.822;2023-06-19T01:50:47;100251.16;;;16.12;77.76
76994;BME280;66749;47.406;18.822;2023-06-19T01:51:19;100256.56;;;16.10;78.27
76994;BME280;66749;47.406;18.822;2023-06-19T01:51:51;100254.88;;;16.09;78.15
76994;BME280;66749;47.406;18.822;2023-06-19T01:52:24;100256.56;;;16.10;77.78
76994;BME280;66749;47.406;18.822;2023-06-19T01:52:56;100256.94;;;16.05;77.74
76994;BME280;66749;47.406;18.822;2023-06-19T01:53:30;100261.47;;;16.03;77.60
76994;BME280;66749;47.406;18.822;2023-06-19T01:54:03;100260.88;;;16.00;78.36
76994;BME280;66749;47.406;18.822;2023-06-19T01:54:36;100260.31;;;15.96;78.49
76994;BME280;66749;47.406;18.822;2023-06-19T01:55:08;100257.69;;;15.96;78.22
76994;BME280;66749;47.406;18.822;2023-06-19T01:55:41;100259.34;;;15.97;78.10
76994;BME280;66749;47.406;18.822;2023-06-19T01:56:13;100264.00;;;15.94;78.36
76994;BME280;66749;47.406;18.822;2023-06-19T01:56:45;100257.06;;;15.93;77.99
76994;BME280;66749;47.406;18.822;2023-06-19T01:57:17;100259.56;;;15.94;78.54
76994;BME280;66749;47.406;18.822;2023-06-19T01:57:49;100263.91;;;15.95;78.40
76994;BME280;66749;47.406;18.822;2023-06-19T01:58:21;100259.56;;;15.94;78.21
76994;BME280;66749;47.406;18.822;2023-06-19T01:58:53;100257.81;;;15.95;78.37
76994;BME280;66749;47.406;18.822;2023-06-19T01:59:27;100261.28;;;15.95;78.13
76994;BME280;66749;47.406;18.822;2023-06-19T01:59:59;100263.06;;;15.95;78.95
76994;BME280;66749;47.406;18.822;2023-06-19T02:00:30;100269.41;;;15.92;78.58
76994;BME280;66749;47.406;18.822;2023-06-19T02:01:06;100256.09;;;15.94;78.53
76994;BME280;66749;47.406;18.822;2023-06-19T02:01:38;100262.47;;;15.91;78.46
76994;BME280;66749;47.406;18.822;2023-06-19T02:02:10;100263.06;;;15.95;78.59
76994;BME280;66749;47.406;18.822;2023-06-19T02:02:43;100264.13;;;15.92;78.67
76994;BME280;66749;47.406;18.822;2023-06-19T02:03:15;100262.19;;;15.94;79.09
76994;BME280;66749;47.406;18.822;2023-06-19T02:03:47;100262.19;;;15.94;79.08
76994;BME280;66749;47.406;18.822;2023-06-19T02:04:19;100263.16;;;15.93;79.12
76994;BME280;66749;47.406;18.822;2023-06-19T02:04:51;100254.56;;;15.91;78.76
76994;BME280;66749;47.406;18.822;2023-06-19T02:05:22;100263.44;;;15.90;79.17
76994;BME280;66749;47.406;18.822;2023-06-19T02:05:54;100258.03;;;15.92;78.87
76994;BME280;66749;47.406;18.822;2023-06-19T02:06:26;100255.03;;;15.96;78.54
76994;BME280;66749;47.406;18.822;2023-06-19T02:06:58;100261.97;;;15.97;79.04
76994;BME280;66749;47.406;18.822;2023-06-19T02:07:30;100263.06;;;15.95;78.67
76994;BME280;66749;47.406;18.822;2023-06-19T02:08:02;100262.81;;;15.98;79.05
76994;BME280;66749;47.406;18.822;2023-06-19T02:08:34;100265.44;;;15.98;79.22
76994;BME280;66749;47.406;18.822;2023-06-19T02:09:06;100253.38;;;15.95;79.06
76994;BME280;66749;47.406;18.822;2023-06-19T02:09:40;100260.44;;;15.95;79.01
76994;BME280;66749;47.406;18.822;2023-06-19T02:10:13;100264.75;;;15.96;79.03
76994;BME280;66749;47.406;18.822;2023-06-19T02:10:44;100263.16;;;15.93;78.31
76994;BME280;66749;47.406;18.822;2023-06-19T02:11:16;100262.34;;;15.93;78.21
76994;BME280;66749;47.406;18.822;2023-06-19T02:11:48;100269.25;;;15.94;78.73
76994;BME280;66749;47.406;18.822;2023-06-19T02:12:20;100268.34;;;15.95;77.82
76994;BME280;66749;47.406;18.822;2023-06-19T02:12:52;100267.47;;;15.94;77.64
76994;BME280;66749;47.406;18.822;2023-06-19T02:13:24;100267.03;;;15.89;77.77
76994;BME280;66749;47.406;18.822;2023-06-19T02:13:55;100261.06;;;15.87;78.26
76994;BME280;66749;47.406;18.822;2023-06-19T02:14:27;100264.63;;;15.86;78.11
76994;BME280;66749;47.406;18.822;2023-06-19T02:14:59;100267.16;;;15.88;77.98
76994;BME280;66749;47.406;18.822;2023-06-19T02:15:31;100265.44;;;15.87;77.93
76994;BME280;66749;47.406;18.822;2023-06-19T02:16:03;100272.63;;;15.85;77.80
76994;BME280;66749;47.406;18.822;2023-06-19T02:16:35;100272.63;;;15.85;78.08
76994;BME280;66749;47.406;18.822;2023-06-19T02:17:07;100269.88;;;15.86;77.71
76994;BME280;66749;47.406;18.822;2023-06-19T02:17:39;100267.16;;;15.88;77.30
76994;BME280;66749;47.406;18.822;2023-06-19T02:18:11;100269.88;;;15.86;77.67
76994;BME280;66749;47.406;18.822;2023-06-19T02:18:43;100260.56;;;15.82;77.91
76994;BME280;66749;47.406;18.822;2023-06-19T02:19:15;100268.59;;;15.80;78.20
76994;BME280;66749;47.406;18.822;2023-06-19T02:19:46;100262.59;;;15.78;78.17
76994;BME280;66749;47.406;18.822;2023-06-19T02:20:18;100263.56;;;15.77;77.54
76994;BME280;66749;47.406;18.822;2023-06-19T02:20:52;100268.97;;;15.76;77.53
76994;BME280;66749;47.406;18.822;2023-06-19T02:21:24;100271.00;;;15.72;78.33
76994;BME280;66749;47.406;18.822;2023-06-19T02:21:56;100266.69;;;15.71;78.07
76994;BME280;66749;47.406;18.822;2023-06-19T02:22:27;100266.69;;;15.71;78.16
76994;BME280;66749;47.406;18.822;2023-06-19T02:22:59;100264.19;;;15.70;78.37
76994;BME280;66749;47.406;18.822;2023-06-19T02:23:31;100265.84;;;15.71;78.43
76994;BME280;66749;47.406;18.822;2023-06-19T02:24:03;100264.19;;;15.70;78.40
76994;BME280;66749;47.406;18.822;2023-06-19T02:24:36;100267.53;;;15.72;78.29
76994;BME280;66749;47.406;18.822;2023-06-19T02:25:08;100267.53;;;15.72;78.38
76994;BME280;66749;47.406;18.822;2023-06-19T02:25:40;100265.84;;;15.71;78.33
76994;BME280;66749;47.406;18.822;2023-06-19T02:26:12;100265.75;;;15.72;78.09
76994;BME280;66749;47.406;18.822;2023-06-19T02:26:44;100267.53;;;15.72;78.32
76994;BME280;66749;47.406;18.822;2023-06-19T02:27:16;100264.78;;;15.73;78.27
76994;BME280;66749;47.406;18.822;2023-06-19T02:27:48;100269.09;;;15.74;78.25
76994;BME280;66749;47.406;18.822;2023-06-19T02:28:20;100274.47;;;15.73;77.89
76994;BME280;66749;47.406;18.822;2023-06-19T02:28:52;100271.72;;;15.74;77.81
76994;BME280;66749;47.406;18.822;2023-06-19T02:29:24;100279.47;;;15.76;78.13
76994;BME280;66749;47.406;18.822;2023-06-19T02:29:55;100272.53;;;15.75;77.67
76994;BME280;66749;47.406;18.822;2023-06-19T02:30:27;100273.75;;;15.71;78.34
76994;BME280;66749;47.406;18.822;2023-06-19T02:30:59;100267.75;;;15.69;77.60
76994;BME280;66749;47.406;18.822;2023-06-19T02:31:31;100274.13;;;15.66;78.32
76994;BME280;66749;47.406;18.822;2023-06-19T02:32:03;100275.91;;;15.66;77.86
76994;BME280;66749;47.406;18.822;2023-06-19T02:32:35;100265.13;;;15.58;78.11
76994;BME280;66749;47.406;18.822;2023-06-19T02:33:07;100271.84;;;15.62;77.80
76994;BME280;66749;47.406;18.822;2023-06-19T02:33:39;100276.38;;;15.60;78.37
76994;BME280;66749;47.406;18.822;2023-06-19T02:34:11;100276.28;;;15.61;78.34
76994;BME280;66749;47.406;18.822;2023-06-19T02:34:44;100259.63;;;15.61;77.92
76994;BME280;66749;47.406;18.822;2023-06-19T02:35:16;100272.91;;;15.59;78.20
76994;BME280;66749;47.406;18.822;2023-06-19T02:35:48;100269.31;;;15.60;78.26
76994;BME280;66749;47.406;18.822;2023-06-19T02:36:20;100274.81;;;15.57;78.50
76994;BME280;66749;47.406;18.822;2023-06-19T02:36:51;100269.56;;;15.57;78.27
76994;BME280;66749;47.406;18.822;2023-06-19T02:37:23;100267.84;;;15.56;78.77
76994;BME280;66749;47.406;18.822;2023-06-19T02:37:55;100269.91;;;15.52;79.08
76994;BME280;66749;47.406;18.822;2023-06-19T02:38:27;100272.28;;;15.55;78.93
76994;BME280;66749;47.406;18.822;2023-06-19T02:39:03;100271.31;;;15.57;79.21
76994;BME280;66749;47.406;18.822;2023-06-19T02:39:35;100267.03;;;15.55;79.23
76994;BME280;66749;47.406;18.822;2023-06-19T02:40:08;100275.75;;;15.56;78.84
76994;BME280;66749;47.406;18.822;2023-06-19T02:40:42;100273.72;;;15.60;79.00
76994;BME280;66749;47.406;18.822;2023-06-19T02:41:14;100276.38;;;15.60;78.71
76994;BME280;66749;47.406;18.822;2023-06-19T02:41:46;100268.59;;;15.58;78.91
76994;BME280;66749;47.406;18.822;2023-06-19T02:42:18;100278.78;;;15.63;79.07
76994;BME280;66749;47.406;18.822;2023-06-19T02:42:50;100276.97;;;15.63;78.50
76994;BME280;66749;47.406;18.822;2023-06-19T02:43:22;100274.56;;;15.60;78.78
76994;BME280;66749;47.406;18.822;2023-06-19T02:43:54;100276.13;;;15.63;78.53
76994;BME280;66749;47.406;18.822;2023-06-19T02:44:26;100278.03;;;15.61;78.98
76994;BME280;66749;47.406;18.822;2023-06-19T02:44:58;100275.41;;;15.61;78.35
76994;BME280;66749;47.406;18.822;2023-06-19T02:45:35;100272.06;;;15.59;78.59
76994;BME280;66749;47.406;18.822;2023-06-19T02:46:06;100275.75;;;15.56;78.52
76994;BME280;66749;47.406;18.822;2023-06-19T02:46:41;100281.97;;;15.55;78.54
76994;BME280;66749;47.406;18.822;2023-06-19T02:47:13;100278.50;;;15.54;78.86
76994;BME280;66749;47.406;18.822;2023-06-19T02:47:44;100277.53;;;15.55;79.13
76994;BME280;66749;47.406;18.822;2023-06-19T02:48:16;100274.22;;;15.53;78.55
76994;BME280;66749;47.406;18.822;2023-06-19T02:48:49;100281.13;;;15.54;78.97
76994;BME280;66749;47.406;18.822;2023-06-19T02:49:21;100280.56;;;15.51;78.76
76994;BME280;66749;47.406;18.822;2023-06-19T02:49:53;100281.53;;;15.50;79.16
76994;BME280;66749;47.406;18.822;2023-06-19T02:50:25;100280.56;;;15.51;79.01
76994;BME280;66749;47.406;18.822;2023-06-19T02:50:57;100280.44;;;15.52;78.87
76994;BME280;66749;47.406;18.822;2023-06-19T02:51:29;100283.91;;;15.53;78.80